Thunder radar more information blitzortung!


Löydät sääaseman tiedot myös:

European Weather Network

Finland Weather Exchange

Weather Underground

AWEKAS



Weather Underground säähistoriasivu

Päivittäin yhteenveto Tou 21, 2017 Yksiköt:  Englantilaiset    Metriset   Molemmat
« Edellinen Päivä
Seuraava Päivä »
Päivittäin Viikoittain Kuukausittain Vuosittain Mukautettu
  Korkea: Matala: Keskiarvo:
Lämpötila: TemperatureC °F -0.7 °F 11.1 °F
Kastepiste: DewpointC °F -1.9 °F 2.5 °F
Kosteus: Humidity % 35 % 59 %
Tuulen nopeus: WindSpeedKMH mph 0.0 mph 0.5 mph
Tuulenpuuska: WindSpeedGustKMH mph - -
Tuuli:- - WNW
Ilmanpaine: PressurehPa in 1012.4 in -
Sade: 0.0 in    
Historical Graphs
 
 
Taulukkotiedot Tou 21, 2017
Aika Lämpötila Kastepiste Ilmanpaine Tuuli Tuulen nopeus Tuulenpuuska Kosteus Sademäärä (tunneittain)
TemperatureC °F DewpointC °F PressurehPa in Calm     Humidity % HourlyPrecipMM in
00:00 4.2 °F 0.8 °F 1019.2 in Calm     79 % 0.0 in
00:15 3.8 °F 0.8 °F 1019.2 in Calm     81 % 0.0 in
00:30 3.4 °F 0.7 °F 1019.2 in Calm     82 % 0.0 in
00:45 3.3 °F 0.6 °F 1019.2 in Calm     82 % 0.0 in
01:00 3.0 °F 0.4 °F 1019.2 in Calm     83 % 0.0 in
01:15 2.6 °F 0.1 °F 1019.5 in Calm     84 % 0.0 in
01:30 2.1 °F -0.2 °F 1019.5 in Calm     85 % 0.0 in
01:45 1.8 °F -0.3 °F 1019.5 in Calm     86 % 0.0 in
02:00 1.4 °F -0.5 °F 1019.5 in Calm     87 % 0.0 in
02:15 1.2 °F -0.8 °F 1019.5 in Calm     87 % 0.0 in
02:30 1.0 °F -0.8 °F 1019.5 in Calm     88 % 0.0 in
02:45 0.8 °F -0.8 °F 1019.2 in Calm     89 % 0.0 in
03:00 0.6 °F -1.0 °F 1019.2 in Calm     89 % 0.0 in
03:15 0.3 °F -1.3 °F 1019.2 in Calm     89 % 0.0 in
03:30 0.1 °F -1.3 °F 1019.2 in Calm     90 % 0.0 in
03:45 0.0 °F -1.3 °F 1019.2 in Calm     91 % 0.0 in
04:00 -0.1 °F -1.4 °F 1019.2 in Calm     91 % 0.0 in
04:15 -0.3 °F -1.6 °F 1019.2 in Calm     91 % 0.0 in
04:30 -0.4 °F -1.7 °F 1018.8 in Calm     91 % 0.0 in
04:45 -0.7 °F -1.8 °F 1018.8 in Calm     92 % 0.0 in
05:00 -0.7 °F -1.8 °F 1018.8 in Calm     92 % 0.0 in
05:15 -0.7 °F -1.9 °F 1018.8 in Calm     92 % 0.0 in
05:30 -0.6 °F -1.6 °F 1018.5 in Calm     93 % 0.0 in
05:45 -0.4 °F -1.4 °F 1018.5 in Calm     93 % 0.0 in
06:00 -0.2 °F -1.2 °F 1018.5 in Calm     93 % 0.0 in
06:15 0.2 °F -0.6 °F 1018.5 in Calm     94 % 0.0 in
06:30 0.8 °F -0.1 °F 1018.5 in Calm     94 % 0.0 in
06:45 1.4 °F 0.4 °F 1018.5 in Calm     93 % 0.0 in
07:00 2.0 °F 0.8 °F 1018.5 in Calm     92 % 0.0 in
07:15 2.9 °F 1.5 °F 1018.2 in Calm     90 % 0.0 in
07:30 4.1 °F 1.9 °F 1018.2 in Calm     86 % 0.0 in
07:45 5.2 °F 2.3 °F 1018.2 in Calm     82 % 0.0 in
08:00 6.1 °F 2.7 °F 1017.8 in Calm     79 % 0.0 in
08:15 6.8 °F 2.9 °F 1017.8 in Calm     76 % 0.0 in
08:30 7.6 °F 3.2 °F 1017.8 in Calm     74 % 0.0 in
08:45 8.8 °F 3.6 °F 1017.8 in Calm     70 % 0.0 in
09:00 10.3 °F 4.0 °F 1017.8 in Calm     65 % 0.0 in
09:15 11.3 °F 4.0 °F 1017.5 in Calm     61 % 0.0 in
09:30 12.3 °F 2.4 °F 1017.5 in Calm     51 % 0.0 in
09:45 13.2 °F 3.0 °F 1017.5 in Calm     50 % 0.0 in
10:00 13.8 °F 1.8 °F 1017.5 in Calm     44 % 0.0 in
10:15 14.7 °F 2.5 °F 1017.2 in Calm     44 % 0.0 in
10:30 15.1 °F 2.2 °F 1017.2 in Calm     42 % 0.0 in
10:45 15.8 °F 4.2 °F 1017.2 in Calm     46 % 0.0 in
11:00 16.3 °F 4.6 °F 1017.2 in NW 1.6 mph 9.7 mph 46 % 0.0 in
11:15 16.5 °F 4.8 °F 1017.2 in SW 3.2 mph 14.5 mph 46 % 0.0 in
11:30 16.8 °F 5.1 °F 1016.8 in WNW 3.2 mph 11.3 mph 46 % 0.0 in
11:45 16.9 °F 5.2 °F 1016.8 in NW 3.2 mph 17.7 mph 46 % 0.0 in
12:00 16.9 °F 4.6 °F 1016.8 in NW 4.8 mph 14.5 mph 44 % 0.0 in
12:15 17.1 °F 4.7 °F 1016.5 in NW 4.8 mph 11.3 mph 44 % 0.0 in
12:30 17.7 °F 5.0 °F 1016.5 in NW 3.2 mph 11.3 mph 43 % 0.0 in
12:45 17.7 °F 5.6 °F 1016.1 in NW 4.8 mph 14.5 mph 45 % 0.0 in
13:00 17.9 °F 5.5 °F 1016.1 in NW 4.8 mph 16.1 mph 44 % 0.0 in
13:15 18.7 °F 5.2 °F 1015.8 in WSW 3.2 mph 14.5 mph 41 % 0.0 in
13:30 18.9 °F 5.4 °F 1015.5 in WSW 3.2 mph 12.9 mph 41 % 0.0 in
13:45 19.2 °F 5.2 °F 1015.5 in WNW 4.8 mph 16.1 mph 40 % 0.0 in
14:00 19.3 °F 5.7 °F 1015.1 in West 3.2 mph 16.1 mph 41 % 0.0 in
14:15 19.6 °F 5.2 °F 1015.1 in Calm     39 % 0.0 in
14:30 19.4 °F 5.4 °F 1014.8 in Calm     40 % 0.0 in
14:45 19.7 °F 5.4 °F 1014.8 in Calm     39 % 0.0 in
15:00 19.9 °F 4.4 °F 1014.4 in Calm     36 % 0.0 in
15:15 19.9 °F 4.4 °F 1014.4 in Calm     36 % 0.0 in
15:30 20.0 °F 4.5 °F 1014.1 in Calm     36 % 0.0 in
15:45 20.2 °F 4.3 °F 1014.1 in Calm     35 % 0.0 in
16:00 20.3 °F 5.5 °F 1014.1 in Calm     38 % 0.0 in
16:15 20.6 °F 5.0 °F 1014.1 in Calm     36 % 0.0 in
16:30 20.3 °F 5.5 °F 1013.8 in Calm     38 % 0.0 in
16:45 20.7 °F 5.1 °F 1013.8 in Calm     36 % 0.0 in
17:00 19.9 °F 4.0 °F 1013.8 in Calm     35 % 0.0 in
17:15 19.7 °F 4.6 °F 1013.8 in Calm     37 % 0.0 in
17:30 19.8 °F 4.7 °F 1013.8 in Calm     37 % 0.0 in
17:45 19.6 °F 4.5 °F 1013.8 in Calm     37 % 0.0 in
18:00 19.4 °F 5.1 °F 1013.4 in Calm     39 % 0.0 in
18:15 19.3 °F 4.3 °F 1013.4 in Calm     37 % 0.0 in
18:30 19.3 °F 4.6 °F 1013.4 in Calm     38 % 0.0 in
18:45 18.9 °F 4.3 °F 1013.1 in Calm     38 % 0.0 in
19:00 18.8 °F 4.2 °F 1013.1 in Calm     38 % 0.0 in
19:15 18.3 °F 3.8 °F 1013.1 in Calm     38 % 0.0 in
19:30 17.9 °F 3.7 °F 1013.1 in Calm     39 % 0.0 in
19:45 17.5 °F 3.7 °F 1013.1 in Calm     40 % 0.0 in
20:00 17.1 °F 3.7 °F 1012.8 in Calm     41 % 0.0 in
20:15 16.7 °F 2.6 °F 1012.8 in Calm     39 % 0.0 in
20:30 16.3 °F 3.0 °F 1012.8 in Calm     41 % 0.0 in
20:45 16.0 °F 2.7 °F 1012.8 in Calm     41 % 0.0 in
21:00 15.7 °F 2.5 °F 1012.8 in Calm     41 % 0.0 in
21:15 15.4 °F 1.8 °F 1012.8 in Calm     40 % 0.0 in
21:30 15.0 °F 2.2 °F 1012.8 in Calm     42 % 0.0 in
21:45 14.6 °F 2.4 °F 1012.8 in Calm     44 % 0.0 in
22:00 14.0 °F 2.9 °F 1012.4 in Calm     47 % 0.0 in
22:15 13.4 °F 2.3 °F 1012.4 in Calm   1.6 mph 47 % 0.0 in
22:30 12.9 °F 2.5 °F 1012.4 in Calm     49 % 0.0 in
22:45 12.2 °F 2.9 °F 1012.4 in Calm     53 % 0.0 in
23:00 11.2 °F 3.2 °F 1012.4 in Calm     58 % 0.0 in
23:15 10.4 °F 3.0 °F 1012.4 in Calm     60 % 0.0 in
23:30 9.3 °F 2.9 °F 1012.8 in Calm     64 % 0.0 in
23:45 8.6 °F 2.8 °F 1012.8 in Calm     67 % 0.0 in
Esan sääasema
Terveisin Weather Underground - 2.75 mb

Alkuperäinen skripti  Jim McMurry - jmcmurry@mwt.net Sovitettu myös templatelle  Wim van der Kuil - Leuven-Template.eu

Laitteet joita käytämme:

Sääasema
Davis VP2

Sääasemaohjelma
Cumulus

Sääaseman tietokone
Asus EeePC

Palveluntarjoaja
Suncomet

Davis VP2

Cumulus

Asus EeePC

Suncomet